CSCL Saturn — VRJS5 — position and weather

sailwx.info

Track history (hours):
 
Tides and Currents Weather Stations Pressure Air Temp Water Temp Dewpoint Dewpoint Depression Visibility Wind Speed Wind Dir Waves Ship Positions

CSCL Saturn

Last reported at 2017-Oct-19 09:00 UTC. Time now 2017-Oct-19 09:12 UTC.
Position N 36°38' E 013°39'.

Length 366 m; draft 14.9 m.

Type: Ship (hazmat cat B). MMSI: 477274400.

Date/timePositionNaut miles runAvg speedWind from/ knotsBaromVisibWave heightAir tempDewpointWater temp
2017-Oct-19 09:00N 36°38' E 013°39'1020.5
2017-Oct-19 08:30N 36°35' E 013°51'1121.4
2017-Oct-19 08:00N 36°32' E 014°04'1021.0
2017-Oct-19 07:30N 36°30' E 014°17'1020.0
2017-Oct-19 07:00N 36°27' E 014°29'1020.3
2017-Oct-19 06:30N 36°24' E 014°41'1120.4
2017-Oct-19 05:58N 36°21' E 014°54'15220.6
2017-Oct-18 22:36N 36°20' E 018°03'818.2
2017-Oct-18 22:11N 36°20' E 018°12'719.4
2017-Oct-18 21:49N 36°20' E 018°21'720.1
2017-Oct-18 21:29N 36°20' E 018°29'1120.3
2017-Oct-18 20:57N 36°20' E 018°43'2020.3
2017-Oct-18 19:57N 36°20' E 019°08'3420.3
2017-Oct-18 18:18N 36°20' E 019°49'820.2
2017-Oct-18 17:55N 36°20' E 019°59'17117.1
2017-Oct-18 07:55N 37°03' E 023°25'819.9
2017-Oct-18 07:30N 37°10' E 023°31'1219.7
2017-Oct-18 06:55N 37°19' E 023°41'918.4
2017-Oct-18 06:25N 37°27' E 023°44'919.7
2017-Oct-18 05:58N 37°36' E 023°43'919.6
2017-Oct-18 05:30N 37°45' E 023°39'918.1
2017-Oct-18 05:01N 37°53' E 023°37'4 7.3
2017-Oct-18 04:30N 37°57' E 023°35'0 0.7
2017-Oct-18 03:58N 37°57' E 023°35'0 0.0
2017-Oct-18 03:28N 37°57' E 023°35'0 0.0
2017-Oct-18 02:58N 37°57' E 023°35'0 0.0
2017-Oct-18 02:28N 37°57' E 023°35'0 0.0
2017-Oct-18 01:58N 37°57' E 023°35'0 0.0
2017-Oct-18 01:28N 37°57' E 023°35'0 0.0
2017-Oct-18 00:58N 37°57' E 023°35'0 0.0
2017-Oct-18 00:28N 37°57' E 023°35'0 0.0
2017-Oct-17 23:58N 37°57' E 023°35'0 0.0
2017-Oct-17 23:28N 37°57' E 023°35'0 0.0
2017-Oct-17 22:58N 37°57' E 023°35'0 0.0
2017-Oct-17 22:28N 37°57' E 023°35'0 0.0
2017-Oct-17 21:58N 37°57' E 023°35'0 0.0
2017-Oct-17 21:28N 37°57' E 023°35'0 0.0
2017-Oct-17 20:58N 37°57' E 023°35'0 0.0
2017-Oct-17 20:28N 37°57' E 023°35'0 0.0
2017-Oct-17 19:58N 37°57' E 023°35'0 0.0
2017-Oct-17 19:28N 37°57' E 023°35'0 0.0
2017-Oct-17 18:58N 37°57' E 023°35'0 0.0
2017-Oct-17 18:28N 37°57' E 023°35'0 0.0
2017-Oct-17 17:58N 37°57' E 023°35'0 0.0
2017-Oct-17 17:28N 37°57' E 023°35'0 0.0
2017-Oct-17 16:58N 37°57' E 023°35'0 0.0
2017-Oct-17 16:28N 37°57' E 023°35'0 0.0
2017-Oct-17 15:58N 37°57' E 023°35'0 0.0
2017-Oct-17 15:28N 37°57' E 023°35'0 0.0
2017-Oct-17 14:58N 37°57' E 023°35'0 0.0
2017-Oct-17 14:28N 37°57' E 023°35'0 0.0
2017-Oct-17 13:58N 37°57' E 023°35'0 0.0
2017-Oct-17 13:28N 37°57' E 023°35'0 0.0
2017-Oct-17 12:58N 37°57' E 023°35'0 0.0
2017-Oct-17 12:28N 37°57' E 023°35'0 0.0
2017-Oct-17 11:58N 37°57' E 023°35'0 0.0
2017-Oct-17 11:30N 37°57' E 023°35'1 2.6
2017-Oct-17 11:00N 37°56' E 023°36'2 4.9
2017-Oct-17 10:30N 37°54' E 023°37'3 5.1
2017-Oct-17 10:00N 37°52' E 023°38'4 7.2
2017-Oct-17 09:30N 37°49' E 023°41'612.9
2017-Oct-17 09:00N 37°43' E 023°44'713.7
2017-Oct-17 08:30N 37°36' E 023°47'815.1
2017-Oct-17 08:00N 37°29' E 023°48'  
Track history (hours):
 
Tides and Currents Weather Stations Pressure Air Temp Water Temp Dewpoint Dewpoint Depression Visibility Wind Speed Wind Dir Waves Ship Positions

CSCL Saturn

Last reported at 2017-Oct-19 09:00 UTC. Time now 2017-Oct-19 09:12 UTC.
Position N 36°38' E 013°39'.

Length 366 m; draft 14.9 m.

Type: Ship (hazmat cat B). MMSI: 477274400.

Date/timePositionNaut miles runAvg speedWind from/ knotsBaromVisibWave heightAir tempDewpointWater temp
2017-Oct-19 09:00N 36°38' E 013°39'1020.5
2017-Oct-19 08:30N 36°35' E 013°51'1121.4
2017-Oct-19 08:00N 36°32' E 014°04'1021.0
2017-Oct-19 07:30N 36°30' E 014°17'1020.0
2017-Oct-19 07:00N 36°27' E 014°29'1020.3
2017-Oct-19 06:30N 36°24' E 014°41'1120.4
2017-Oct-19 05:58N 36°21' E 014°54'15220.6
2017-Oct-18 22:36N 36°20' E 018°03'818.2
2017-Oct-18 22:11N 36°20' E 018°12'719.4
2017-Oct-18 21:49N 36°20' E 018°21'720.1
2017-Oct-18 21:29N 36°20' E 018°29'1120.3
2017-Oct-18 20:57N 36°20' E 018°43'2020.3
2017-Oct-18 19:57N 36°20' E 019°08'3420.3
2017-Oct-18 18:18N 36°20' E 019°49'820.2
2017-Oct-18 17:55N 36°20' E 019°59'17117.1
2017-Oct-18 07:55N 37°03' E 023°25'819.9
2017-Oct-18 07:30N 37°10' E 023°31'1219.7
2017-Oct-18 06:55N 37°19' E 023°41'918.4
2017-Oct-18 06:25N 37°27' E 023°44'919.7
2017-Oct-18 05:58N 37°36' E 023°43'919.6
2017-Oct-18 05:30N 37°45' E 023°39'918.1
2017-Oct-18 05:01N 37°53' E 023°37'4 7.3
2017-Oct-18 04:30N 37°57' E 023°35'0 0.7
2017-Oct-18 03:58N 37°57' E 023°35'0 0.0
2017-Oct-18 03:28N 37°57' E 023°35'0 0.0
2017-Oct-18 02:58N 37°57' E 023°35'0 0.0
2017-Oct-18 02:28N 37°57' E 023°35'0 0.0
2017-Oct-18 01:58N 37°57' E 023°35'0 0.0
2017-Oct-18 01:28N 37°57' E 023°35'0 0.0
2017-Oct-18 00:58N 37°57' E 023°35'0 0.0
2017-Oct-18 00:28N 37°57' E 023°35'0 0.0
2017-Oct-17 23:58N 37°57' E 023°35'0 0.0
2017-Oct-17 23:28N 37°57' E 023°35'0 0.0
2017-Oct-17 22:58N 37°57' E 023°35'0 0.0
2017-Oct-17 22:28N 37°57' E 023°35'0 0.0
2017-Oct-17 21:58N 37°57' E 023°35'0 0.0
2017-Oct-17 21:28N 37°57' E 023°35'0 0.0
2017-Oct-17 20:58N 37°57' E 023°35'0 0.0
2017-Oct-17 20:28N 37°57' E 023°35'0 0.0
2017-Oct-17 19:58N 37°57' E 023°35'0 0.0
2017-Oct-17 19:28N 37°57' E 023°35'0 0.0
2017-Oct-17 18:58N 37°57' E 023°35'0 0.0
2017-Oct-17 18:28N 37°57' E 023°35'0 0.0
2017-Oct-17 17:58N 37°57' E 023°35'0 0.0
2017-Oct-17 17:28N 37°57' E 023°35'0 0.0
2017-Oct-17 16:58N 37°57' E 023°35'0 0.0
2017-Oct-17 16:28N 37°57' E 023°35'0 0.0
2017-Oct-17 15:58N 37°57' E 023°35'0 0.0
2017-Oct-17 15:28N 37°57' E 023°35'0 0.0
2017-Oct-17 14:58N 37°57' E 023°35'0 0.0
2017-Oct-17 14:28N 37°57' E 023°35'0 0.0
2017-Oct-17 13:58N 37°57' E 023°35'0 0.0
2017-Oct-17 13:28N 37°57' E 023°35'0 0.0
2017-Oct-17 12:58N 37°57' E 023°35'0 0.0
2017-Oct-17 12:28N 37°57' E 023°35'0 0.0
2017-Oct-17 11:58N 37°57' E 023°35'0 0.0
2017-Oct-17 11:30N 37°57' E 023°35'1 2.6
2017-Oct-17 11:00N 37°56' E 023°36'2 4.9
2017-Oct-17 10:30N 37°54' E 023°37'3 5.1
2017-Oct-17 10:00N 37°52' E 023°38'4 7.2
2017-Oct-17 09:30N 37°49' E 023°41'612.9
2017-Oct-17 09:00N 37°43' E 023°44'713.7
2017-Oct-17 08:30N 37°36' E 023°47'815.1
2017-Oct-17 08:00N 37°29' E 023°48'  

Dump ship's entire track history